Time;durP1;ratioP1;P1;durP2;ratioP2;P2;SDS_P1;SDS_P2;PMS_P1;PMS_P2;Temp;Humidity;BMP_temperature;BMP_pressure;BME280_temperature;BME280_humidity;BME280_pressure;Samples;Min_cycle;Max_cycle;Signal;HPM_P1;HPM_P2
2023/05/16 00:01:15;;;;;;;;;;;12.50;99.90;;;;;;5085646;28;19920;-73
2023/05/16 00:03:41;;;;;;;;;;;12.60;99.90;;;;;;5087019;28;19965;-73
2023/05/16 00:06:10;;;;;;;;;;;12.60;99.90;;;;;;5088013;28;19912;-73
2023/05/16 00:08:35;;;;;;;;;;;12.60;99.90;;;;;;5088703;28;19918;-73
2023/05/16 00:11:01;;;;;;;;;;;12.60;99.90;;;;;;5061071;28;20354;-73
2023/05/16 00:13:28;;;;;;;;;;;12.50;99.90;;;;;;5077315;28;19924;-73
2023/05/16 00:15:54;;;;;;;;;;;12.50;99.90;;;;;;5041640;28;19918;-73
2023/05/16 00:18:21;;;;;;;;;;;12.40;99.90;;;;;;5077907;28;19912;-73
2023/05/16 00:20:48;;;;;;;;;;;12.50;99.90;;;;;;5080835;28;19913;-72
2023/05/16 00:23:14;;;;;;;;;;;12.50;99.90;;;;;;5079089;28;19953;-74
2023/05/16 00:25:39;;;;;;;;;;;12.50;99.90;;;;;;5062310;28;20689;-73
2023/05/16 00:28:05;;;;;;;;;;;12.60;99.90;;;;;;5080765;28;19923;-73
2023/05/16 00:30:31;;;;;;;;;;;12.60;99.90;;;;;;5080148;28;19918;-73
2023/05/16 00:32:57;;;;;;;;;;;12.60;99.90;;;;;;5085962;28;19927;-73
2023/05/16 00:35:22;;;;;;;;;;;12.60;99.90;;;;;;5085530;28;20290;-74
2023/05/16 00:37:49;;;;;;;;;;;12.60;99.90;;;;;;5086177;28;19962;-74
2023/05/16 00:40:14;;;;;;;;;;;12.60;99.90;;;;;;5078541;28;19912;-74
2023/05/16 00:42:41;;;;;;;;;;;12.60;99.90;;;;;;5085292;28;19935;-73
2023/05/16 00:45:07;;;;;;;;;;;12.60;99.90;;;;;;5085715;28;19916;-74
2023/05/16 00:47:33;;;;;;;;;;;12.60;99.90;;;;;;5080171;28;19916;-74
2023/05/16 00:49:59;;;;;;;;;;;12.60;99.90;;;;;;5089192;28;19923;-73
2023/05/16 00:52:24;;;;;;;;;;;12.60;99.90;;;;;;5095005;28;19924;-73
2023/05/16 00:54:50;;;;;;;;;;;12.70;99.90;;;;;;5062409;28;19969;-73
2023/05/16 00:57:16;;;;;;;;;;;12.70;99.90;;;;;;5079450;28;19912;-73
2023/05/16 00:59:43;;;;;;;;;;;12.80;99.90;;;;;;5076829;28;19926;-74
2023/05/16 01:02:08;;;;;;;;;;;12.80;99.90;;;;;;5080286;28;20329;-73
2023/05/16 01:04:34;;;;;;;;;;;12.70;99.90;;;;;;5078219;28;19912;-73
2023/05/16 01:07:01;;;;;;;;;;;12.80;99.90;;;;;;5086857;28;19924;-74
2023/05/16 01:09:26;;;;;;;;;;;12.80;99.90;;;;;;5084773;28;19956;-73
2023/05/16 01:11:59;;;;;;;;;;;12.80;99.90;;;;;;5079965;28;19966;-72
2023/05/16 01:14:32;;;;;;;;;;;12.80;99.90;;;;;;5061303;28;19932;-72
2023/05/16 01:17:17;;;;;;;;;;;12.80;99.90;;;;;;5084142;28;20297;-74
2023/05/16 01:19:52;;;;;;;;;;;12.80;99.90;;;;;;5076199;28;19970;-73
2023/05/16 01:22:24;;;;;;;;;;;12.80;99.90;;;;;;5086150;28;19912;-74
2023/05/16 01:25:03;;;;;;;;;;;12.80;99.90;;;;;;5087570;28;20235;-73
2023/05/16 01:27:30;;;;;;;;;;;12.80;99.90;;;;;;5087040;28;19994;-72
2023/05/16 01:29:55;;;;;;;;;;;12.80;99.90;;;;;;5079528;28;20333;-73
2023/05/16 01:32:21;;;;;;;;;;;12.80;99.90;;;;;;5077610;28;19916;-73
2023/05/16 01:34:47;;;;;;;;;;;12.80;99.90;;;;;;5076200;28;20463;-73
2023/05/16 01:37:17;;;;;;;;;;;12.80;99.90;;;;;;5078904;28;19916;-73
2023/05/16 01:40:06;;;;;;;;;;;12.70;99.90;;;;;;5078553;28;20329;-73
2023/05/16 01:42:33;;;;;;;;;;;12.70;99.90;;;;;;5073744;28;19920;-73
2023/05/16 01:45:01;;;;;;;;;;;12.70;99.90;;;;;;5085697;28;20035;-73
2023/05/16 01:47:28;;;;;;;;;;;12.70;99.90;;;;;;5086871;28;20405;-73
2023/05/16 01:50:07;;;;;;;;;;;12.70;99.90;;;;;;5086363;28;19919;-73
2023/05/16 01:52:39;;;;;;;;;;;12.70;99.90;;;;;;5083197;28;19969;-73
2023/05/16 01:55:09;;;;;;;;;;;12.80;99.90;;;;;;5092658;28;19950;-73
2023/05/16 01:57:35;;;;;;;;;;;12.70;99.90;;;;;;5079197;28;19959;-73
2023/05/16 02:00:00;;;;;;;;;;;12.60;99.90;;;;;;5081890;28;19952;-73
2023/05/16 02:02:26;;;;;;;;;;;12.60;99.90;;;;;;5081211;28;20372;-73
2023/05/16 02:04:51;;;;;;;;;;;12.50;99.90;;;;;;5091015;28;19920;-73
2023/05/16 02:07:17;;;;;;;;;;;12.50;99.90;;;;;;5090703;28;19947;-73
2023/05/16 02:09:42;;;;;;;;;;;12.40;99.90;;;;;;5081955;28;19912;-73
2023/05/16 02:12:08;;;;;;;;;;;12.40;99.90;;;;;;5089636;28;20003;-73
2023/05/16 02:14:34;;;;;;;;;;;12.40;99.90;;;;;;5082684;28;19973;-73
2023/05/16 02:16:59;;;;;;;;;;;12.40;99.90;;;;;;5080437;28;19916;-73
2023/05/16 02:19:25;;;;;;;;;;;12.40;99.90;;;;;;5090356;28;19928;-73
2023/05/16 02:21:50;;;;;;;;;;;12.40;99.90;;;;;;5090780;28;20379;-73
2023/05/16 02:24:16;;;;;;;;;;;12.40;99.90;;;;;;5082456;28;19927;-73
2023/05/16 02:26:41;;;;;;;;;;;12.40;99.90;;;;;;5090281;28;19999;-73
2023/05/16 02:29:08;;;;;;;;;;;12.40;99.90;;;;;;5083224;28;19965;-73
2023/05/16 02:31:36;;;;;;;;;;;12.30;99.90;;;;;;5087893;28;19951;-73
2023/05/16 02:34:01;;;;;;;;;;;12.30;99.90;;;;;;5082070;28;19918;-73
2023/05/16 02:36:27;;;;;;;;;;;12.30;99.90;;;;;;5089168;28;19912;-73
2023/05/16 02:38:53;;;;;;;;;;;12.20;99.90;;;;;;5090965;28;19918;-73
2023/05/16 02:41:21;;;;;;;;;;;12.20;99.90;;;;;;5065368;28;19913;-73
2023/05/16 02:43:47;;;;;;;;;;;12.20;99.90;;;;;;5089633;28;19925;-73
2023/05/16 02:46:23;;;;;;;;;;;12.20;99.90;;;;;;5064380;28;19916;-73
2023/05/16 02:48:49;;;;;;;;;;;12.20;99.90;;;;;;5085977;28;20401;-73
2023/05/16 02:51:15;;;;;;;;;;;12.10;99.90;;;;;;5081219;28;19919;-73
2023/05/16 02:53:40;;;;;;;;;;;12.20;99.90;;;;;;5080339;28;19912;-73
2023/05/16 02:56:06;;;;;;;;;;;12.20;99.90;;;;;;5089404;28;19969;-73
2023/05/16 02:58:32;;;;;;;;;;;12.10;99.90;;;;;;5080769;28;19916;-73
2023/05/16 03:00:57;;;;;;;;;;;12.10;99.90;;;;;;5078804;28;19916;-73
2023/05/16 03:03:23;;;;;;;;;;;12.20;99.90;;;;;;5088491;28;20521;-73
2023/05/16 03:05:49;;;;;;;;;;;12.20;99.90;;;;;;5088321;28;19912;-73
2023/05/16 03:08:14;;;;;;;;;;;12.10;99.90;;;;;;5089392;28;20367;-73
2023/05/16 03:10:40;;;;;;;;;;;12.10;99.90;;;;;;5088447;28;19912;-73
2023/05/16 03:13:06;;;;;;;;;;;12.10;99.90;;;;;;5081062;28;19967;-73
2023/05/16 03:15:31;;;;;;;;;;;12.10;99.90;;;;;;5081412;28;19916;-73
2023/05/16 03:17:57;;;;;;;;;;;12.10;99.90;;;;;;5089015;28;19916;-73
2023/05/16 03:20:22;;;;;;;;;;;12.00;99.90;;;;;;5088692;28;19922;-73
2023/05/16 03:22:48;;;;;;;;;;;12.10;99.90;;;;;;5079471;28;19916;-73
2023/05/16 03:25:14;;;;;;;;;;;12.10;99.90;;;;;;5089736;28;19912;-73
2023/05/16 03:27:39;;;;;;;;;;;12.10;99.90;;;;;;5088647;28;19920;-74
2023/05/16 03:30:06;;;;;;;;;;;12.10;99.90;;;;;;5088687;28;19912;-73
2023/05/16 03:32:32;;;;;;;;;;;12.10;99.90;;;;;;5086736;28;19965;-74
2023/05/16 03:34:57;;;;;;;;;;;12.00;99.90;;;;;;5087475;28;19916;-73
2023/05/16 03:37:23;;;;;;;;;;;12.00;99.90;;;;;;5088766;28;19912;-73
2023/05/16 03:39:48;;;;;;;;;;;11.90;99.90;;;;;;5088043;28;20014;-73
2023/05/16 03:42:14;;;;;;;;;;;11.90;99.90;;;;;;5078271;28;19968;-72
2023/05/16 03:44:40;;;;;;;;;;;11.90;99.90;;;;;;5081053;28;20644;-73
2023/05/16 03:47:05;;;;;;;;;;;12.00;99.90;;;;;;5080952;28;19920;-73
2023/05/16 03:49:31;;;;;;;;;;;12.00;99.90;;;;;;5088999;28;19916;-73
2023/05/16 03:51:57;;;;;;;;;;;12.00;99.90;;;;;;5088615;28;19915;-73
2023/05/16 03:54:22;;;;;;;;;;;12.00;99.90;;;;;;5082818;28;20016;-73
2023/05/16 03:56:48;;;;;;;;;;;11.90;99.90;;;;;;5088298;28;19919;-74
2023/05/16 03:59:14;;;;;;;;;;;11.90;99.90;;;;;;5090290;28;20413;-73
2023/05/16 04:01:39;;;;;;;;;;;11.90;99.90;;;;;;5087666;28;19916;-73
2023/05/16 04:04:05;;;;;;;;;;;11.90;99.90;;;;;;5070933;28;20365;-73
2023/05/16 04:06:31;;;;;;;;;;;11.80;99.90;;;;;;5088140;28;19916;-73
2023/05/16 04:08:58;;;;;;;;;;;11.90;99.90;;;;;;5086590;28;19960;-73
2023/05/16 04:11:23;;;;;;;;;;;11.80;99.90;;;;;;5083331;28;19993;-73
2023/05/16 04:13:49;;;;;;;;;;;11.80;99.90;;;;;;5083989;28;20376;-73
2023/05/16 04:16:14;;;;;;;;;;;11.80;99.90;;;;;;5087281;28;19912;-73
2023/05/16 04:18:40;;;;;;;;;;;11.80;99.90;;;;;;5087100;28;19938;-73
2023/05/16 04:21:06;;;;;;;;;;;11.80;99.90;;;;;;5079134;28;19916;-73
2023/05/16 04:23:32;;;;;;;;;;;11.70;99.90;;;;;;5080254;28;19928;-73
2023/05/16 04:25:57;;;;;;;;;;;11.80;99.90;;;;;;5082161;28;19920;-73
2023/05/16 04:28:24;;;;;;;;;;;11.80;99.90;;;;;;5080135;28;19916;-74
2023/05/16 04:30:50;;;;;;;;;;;11.70;99.90;;;;;;5086398;28;19920;-73
2023/05/16 04:33:16;;;;;;;;;;;11.80;99.90;;;;;;5087112;28;19923;-73
2023/05/16 04:35:42;;;;;;;;;;;11.80;99.90;;;;;;5079044;28;19923;-74
2023/05/16 04:38:10;;;;;;;;;;;11.80;99.90;;;;;;5057223;28;19928;-74
2023/05/16 04:40:36;;;;;;;;;;;11.80;99.90;;;;;;5084662;28;19940;-74
2023/05/16 04:43:02;;;;;;;;;;;11.80;99.90;;;;;;5076918;28;20548;-74
2023/05/16 04:45:27;;;;;;;;;;;11.80;99.90;;;;;;5088815;28;19918;-74
2023/05/16 04:47:53;;;;;;;;;;;11.70;99.90;;;;;;5081830;28;19916;-74
2023/05/16 04:50:18;;;;;;;;;;;11.70;99.90;;;;;;5062110;28;20831;-74
2023/05/16 04:52:44;;;;;;;;;;;11.70;99.90;;;;;;5087112;28;19912;-74
2023/05/16 04:55:10;;;;;;;;;;;11.70;99.90;;;;;;5078128;28;19916;-73
2023/05/16 04:57:35;;;;;;;;;;;11.70;99.90;;;;;;5087455;28;20810;-72
2023/05/16 05:00:01;;;;;;;;;;;11.70;99.90;;;;;;5079536;28;19919;-72
2023/05/16 05:02:27;;;;;;;;;;;11.70;99.90;;;;;;5060517;28;19928;-72
2023/05/16 05:04:52;;;;;;;;;;;11.80;99.90;;;;;;5065228;28;20122;-73
2023/05/16 05:07:18;;;;;;;;;;;11.80;99.90;;;;;;5087468;28;20014;-73
2023/05/16 05:09:44;;;;;;;;;;;11.90;99.90;;;;;;5075928;28;20349;-73
2023/05/16 05:12:10;;;;;;;;;;;11.80;99.90;;;;;;5077221;28;19962;-73
2023/05/16 05:14:35;;;;;;;;;;;11.80;99.90;;;;;;5083788;28;19963;-73
2023/05/16 05:17:01;;;;;;;;;;;11.70;99.90;;;;;;5077281;28;19947;-73
2023/05/16 05:19:26;;;;;;;;;;;11.80;99.90;;;;;;5087873;28;19926;-73
2023/05/16 05:21:58;;;;;;;;;;;11.90;99.90;;;;;;5086076;28;20398;-73
2023/05/16 05:24:24;;;;;;;;;;;12.00;99.90;;;;;;5075680;28;20003;-73
2023/05/16 05:26:50;;;;;;;;;;;12.10;99.90;;;;;;5091251;28;19920;-73
2023/05/16 05:29:16;;;;;;;;;;;12.10;99.90;;;;;;5076418;28;20566;-72
2023/05/16 05:31:42;;;;;;;;;;;12.10;99.90;;;;;;5084258;28;19920;-73
2023/05/16 05:34:07;;;;;;;;;;;12.10;99.90;;;;;;5078004;28;19970;-72
2023/05/16 05:36:33;;;;;;;;;;;12.10;99.90;;;;;;5076822;28;19919;-72
2023/05/16 05:38:58;;;;;;;;;;;12.10;99.90;;;;;;5077258;28;20002;-72
2023/05/16 05:41:25;;;;;;;;;;;12.20;99.90;;;;;;5078387;28;19927;-72
2023/05/16 05:43:51;;;;;;;;;;;12.30;99.90;;;;;;5087206;28;19920;-72
2023/05/16 05:46:16;;;;;;;;;;;12.30;99.90;;;;;;5082957;28;19916;-72
2023/05/16 05:48:42;;;;;;;;;;;12.30;99.90;;;;;;5078711;28;19924;-72
2023/05/16 05:51:08;;;;;;;;;;;12.40;99.90;;;;;;5079562;28;19912;-72
2023/05/16 05:53:33;;;;;;;;;;;12.40;99.90;;;;;;5088552;28;19981;-72
2023/05/16 05:55:59;;;;;;;;;;;12.40;99.90;;;;;;5059461;28;19912;-70
2023/05/16 05:58:25;;;;;;;;;;;12.40;99.90;;;;;;5088012;28;20303;-73
2023/05/16 06:00:51;;;;;;;;;;;12.50;99.90;;;;;;5059708;28;19919;-73
2023/05/16 06:03:16;;;;;;;;;;;12.50;99.90;;;;;;5076628;28;20061;-77
2023/05/16 06:05:42;;;;;;;;;;;12.50;99.90;;;;;;5076909;28;19912;-73
2023/05/16 06:08:08;;;;;;;;;;;12.50;99.60;;;;;;5072724;28;20317;-73
2023/05/16 06:10:33;;;;;;;;;;;12.50;99.90;;;;;;5075309;28;19916;-73
2023/05/16 06:13:00;;;;;;;;;;;12.50;99.90;;;;;;5079763;28;19955;-73
2023/05/16 06:15:25;;;;;;;;;;;12.40;99.90;;;;;;5078778;28;19927;-73
2023/05/16 06:17:51;;;;;;;;;;;12.40;99.90;;;;;;5078245;28;20666;-73
2023/05/16 06:20:17;;;;;;;;;;;12.40;99.90;;;;;;5074539;28;19913;-72
2023/05/16 06:22:42;;;;;;;;;;;12.40;99.90;;;;;;5059917;28;19985;-74
2023/05/16 06:25:08;;;;;;;;;;;12.30;99.90;;;;;;5084594;28;19965;-74
2023/05/16 06:27:34;;;;;;;;;;;12.30;99.90;;;;;;5083291;28;20290;-73
2023/05/16 06:30:00;;;;;;;;;;;12.30;99.90;;;;;;5082972;28;19916;-73
2023/05/16 06:32:26;;;;;;;;;;;12.20;99.90;;;;;;5076528;28;19912;-73
2023/05/16 06:34:53;;;;;;;;;;;12.20;99.90;;;;;;5075134;28;20410;-73
2023/05/16 06:37:18;;;;;;;;;;;12.10;99.90;;;;;;5089324;28;19912;-74
2023/05/16 06:39:44;;;;;;;;;;;12.10;99.90;;;;;;5078475;28;20326;-74
2023/05/16 06:42:10;;;;;;;;;;;12.10;99.90;;;;;;5077057;28;19912;-73
2023/05/16 06:44:35;;;;;;;;;;;12.00;99.90;;;;;;5078300;28;19961;-75
2023/05/16 06:47:01;;;;;;;;;;;11.90;99.90;;;;;;5087362;28;20026;-73
2023/05/16 06:49:26;;;;;;;;;;;12.00;99.90;;;;;;5089212;28;20395;-72
2023/05/16 06:51:52;;;;;;;;;;;12.00;99.90;;;;;;5087874;28;19920;-73
2023/05/16 06:54:18;;;;;;;;;;;12.10;99.90;;;;;;5088996;28;19912;-72
2023/05/16 06:56:44;;;;;;;;;;;12.20;99.90;;;;;;5080816;28;20367;-73
2023/05/16 06:59:09;;;;;;;;;;;12.30;99.90;;;;;;5080666;28;19920;-72
2023/05/16 07:01:35;;;;;;;;;;;12.40;99.70;;;;;;5084110;28;19916;-73
2023/05/16 07:04:00;;;;;;;;;;;12.40;99.70;;;;;;5076137;28;19967;-73
2023/05/16 07:06:26;;;;;;;;;;;12.50;99.50;;;;;;5063357;28;19916;-73
2023/05/16 07:08:51;;;;;;;;;;;12.60;99.20;;;;;;5081083;28;19946;-73
2023/05/16 07:11:17;;;;;;;;;;;12.70;99.30;;;;;;5082054;28;19919;-73
2023/05/16 07:13:43;;;;;;;;;;;12.60;98.70;;;;;;5084122;28;19916;-73
2023/05/16 07:16:08;;;;;;;;;;;12.60;98.10;;;;;;5082967;28;19955;-72
2023/05/16 07:18:34;;;;;;;;;;;12.50;98.60;;;;;;5089480;28;20002;-72
2023/05/16 07:21:00;;;;;;;;;;;12.50;98.50;;;;;;5088440;28;20315;-73
2023/05/16 07:23:25;;;;;;;;;;;12.50;98.50;;;;;;5075954;28;20378;-74
2023/05/16 07:25:52;;;;;;;;;;;12.50;98.20;;;;;;5087879;28;19919;-74
2023/05/16 07:28:17;;;;;;;;;;;12.60;97.40;;;;;;5080438;28;20007;-74
2023/05/16 07:30:43;;;;;;;;;;;12.50;97.20;;;;;;5086228;28;19990;-72
2023/05/16 07:33:08;;;;;;;;;;;12.70;96.80;;;;;;5088873;28;20329;-73
2023/05/16 07:35:34;;;;;;;;;;;12.80;96.40;;;;;;5081954;28;19977;-74
2023/05/16 07:38:00;;;;;;;;;;;12.80;96.20;;;;;;5065111;28;19916;-72
2023/05/16 07:40:28;;;;;;;;;;;12.90;96.30;;;;;;5078273;28;20376;-72
2023/05/16 07:42:54;;;;;;;;;;;12.90;96.40;;;;;;5089653;28;20383;-74
2023/05/16 07:45:20;;;;;;;;;;;12.90;96.10;;;;;;5082173;28;19958;-74
2023/05/16 07:47:45;;;;;;;;;;;12.80;95.40;;;;;;5087884;28;19960;-74
2023/05/16 07:50:11;;;;;;;;;;;12.70;95.30;;;;;;5080201;28;19948;-73
2023/05/16 07:52:36;;;;;;;;;;;12.70;95.40;;;;;;5088749;28;19940;-74
2023/05/16 07:55:02;;;;;;;;;;;12.80;95.00;;;;;;5089431;28;19926;-73
2023/05/16 07:57:28;;;;;;;;;;;12.90;94.50;;;;;;5078912;28;19913;-73
2023/05/16 07:59:54;;;;;;;;;;;13.00;94.40;;;;;;5081412;28;20325;-73
2023/05/16 08:02:20;;;;;;;;;;;13.00;93.90;;;;;;5089561;28;19962;-74
2023/05/16 08:04:47;;;;;;;;;;;13.00;93.40;;;;;;5082596;28;19915;-74
2023/05/16 08:07:13;;;;;;;;;;;13.00;92.90;;;;;;5089215;28;20379;-73
2023/05/16 08:09:39;;;;;;;;;;;13.00;92.90;;;;;;5080824;28;19934;-73
2023/05/16 08:12:04;;;;;;;;;;;13.10;93.50;;;;;;5086059;28;19916;-74
2023/05/16 08:14:31;;;;;;;;;;;13.20;93.70;;;;;;5079845;28;19912;-73
2023/05/16 08:17:00;;;;;;;;;;;13.40;93.40;;;;;;5064428;28;19995;-74
2023/05/16 08:19:26;;;;;;;;;;;13.40;93.80;;;;;;5080042;28;19913;-73
2023/05/16 08:21:51;;;;;;;;;;;13.50;93.40;;;;;;5081853;28;20260;-74
2023/05/16 08:24:17;;;;;;;;;;;13.60;93.50;;;;;;5074127;28;19916;-74
2023/05/16 08:26:42;;;;;;;;;;;13.60;94.10;;;;;;5088343;28;19922;-74
2023/05/16 08:29:08;;;;;;;;;;;13.60;96.00;;;;;;5087636;28;19967;-73
2023/05/16 08:31:34;;;;;;;;;;;13.50;97.00;;;;;;5078093;28;20035;-74
2023/05/16 08:34:00;;;;;;;;;;;13.30;97.00;;;;;;5086926;28;20435;-73
2023/05/16 08:36:26;;;;;;;;;;;13.20;96.40;;;;;;5081678;28;19909;-73
2023/05/16 08:38:52;;;;;;;;;;;13.20;96.40;;;;;;5089713;28;19915;-73
2023/05/16 08:41:17;;;;;;;;;;;13.30;96.70;;;;;;5078884;28;20319;-73
2023/05/16 08:43:43;;;;;;;;;;;13.40;96.50;;;;;;5089272;28;19966;-73
2023/05/16 08:46:09;;;;;;;;;;;13.60;94.10;;;;;;5062950;28;20338;-74
2023/05/16 08:48:35;;;;;;;;;;;13.60;93.30;;;;;;5076459;28;20402;-74
2023/05/16 08:51:01;;;;;;;;;;;13.60;92.30;;;;;;5080366;28;20002;-73
2023/05/16 08:53:32;;;;;;;;;;;13.60;92.00;;;;;;5088657;28;19908;-73
2023/05/16 08:55:58;;;;;;;;;;;13.60;92.10;;;;;;5080906;28;20033;-73
2023/05/16 08:58:24;;;;;;;;;;;13.60;91.90;;;;;;5087335;28;19995;-73
2023/05/16 09:00:50;;;;;;;;;;;13.70;91.70;;;;;;5087989;28;19956;-73
2023/05/16 09:03:16;;;;;;;;;;;13.70;91.60;;;;;;5086727;28;19947;-73
2023/05/16 09:05:42;;;;;;;;;;;13.70;90.00;;;;;;5061385;28;19940;-73
2023/05/16 09:08:07;;;;;;;;;;;13.70;88.30;;;;;;5077887;28;19908;-73
2023/05/16 09:10:33;;;;;;;;;;;13.70;88.80;;;;;;5088166;28;19919;-73
2023/05/16 09:12:58;;;;;;;;;;;13.70;89.80;;;;;;5089247;28;20359;-73
2023/05/16 09:15:30;;;;;;;;;;;13.80;90.10;;;;;;5088064;28;21286;-73
2023/05/16 09:17:58;;;;;;;;;;;13.90;90.50;;;;;;5080095;28;19912;-73
2023/05/16 09:20:25;;;;;;;;;;;13.90;90.80;;;;;;5088274;28;19912;-73
2023/05/16 09:22:55;;;;;;;;;;;13.90;87.20;;;;;;5076643;28;19924;-74
2023/05/16 09:25:21;;;;;;;;;;;13.90;86.70;;;;;;5089061;28;20013;-73
2023/05/16 09:27:47;;;;;;;;;;;14.00;85.30;;;;;;5076455;28;19917;-73
2023/05/16 09:30:14;;;;;;;;;;;14.10;86.60;;;;;;5088048;28;19943;-72
2023/05/16 09:32:44;;;;;;;;;;;14.20;90.20;;;;;;5077014;28;19959;-73
2023/05/16 09:35:13;;;;;;;;;;;14.00;91.00;;;;;;5088309;28;19914;-73
2023/05/16 09:37:43;;;;;;;;;;;13.80;90.80;;;;;;5078893;28;19958;-73
2023/05/16 09:40:08;;;;;;;;;;;13.90;89.20;;;;;;5086509;28;20312;-73
2023/05/16 09:42:34;;;;;;;;;;;14.00;84.80;;;;;;5078986;28;19934;-73
2023/05/16 09:45:00;;;;;;;;;;;13.90;85.90;;;;;;5079444;28;19908;-73
2023/05/16 09:47:26;;;;;;;;;;;14.00;84.80;;;;;;5078390;28;19916;-74
2023/05/16 09:49:52;;;;;;;;;;;14.20;85.20;;;;;;5088303;28;19950;-74
2023/05/16 09:52:18;;;;;;;;;;;14.40;86.10;;;;;;5079174;28;19916;-75
2023/05/16 09:54:45;;;;;;;;;;;14.50;84.50;;;;;;5077931;28;19938;-73
2023/05/16 09:57:11;;;;;;;;;;;14.70;83.50;;;;;;5086940;28;20034;-73
2023/05/16 09:59:37;;;;;;;;;;;14.70;83.50;;;;;;5081272;28;20553;-73
2023/05/16 10:02:04;;;;;;;;;;;14.60;81.90;;;;;;5078366;28;19916;-73
2023/05/16 10:04:30;;;;;;;;;;;14.40;83.30;;;;;;5087429;28;20383;-73
2023/05/16 10:06:56;;;;;;;;;;;14.30;85.50;;;;;;5079833;28;19908;-73
2023/05/16 10:09:25;;;;;;;;;;;14.00;87.10;;;;;;5082858;28;20057;-73
2023/05/16 10:11:52;;;;;;;;;;;13.90;88.10;;;;;;5065311;28;20015;-73
2023/05/16 10:14:18;;;;;;;;;;;14.00;88.50;;;;;;5091631;28;20127;-73
2023/05/16 10:16:45;;;;;;;;;;;14.20;88.90;;;;;;5079696;28;20207;-73
2023/05/16 10:19:11;;;;;;;;;;;14.40;89.20;;;;;;5084293;28;19912;-73
2023/05/16 10:21:37;;;;;;;;;;;14.40;89.70;;;;;;5091893;28;19912;-73
2023/05/16 10:24:05;;;;;;;;;;;14.30;88.80;;;;;;5091277;28;19928;-74
2023/05/16 10:26:31;;;;;;;;;;;14.30;87.60;;;;;;5082665;28;19916;-73
2023/05/16 10:28:57;;;;;;;;;;;14.20;88.10;;;;;;5083854;28;20401;-73
2023/05/16 10:31:23;;;;;;;;;;;14.30;88.50;;;;;;5089492;28;19920;-73
2023/05/16 10:33:52;;;;;;;;;;;14.40;88.00;;;;;;5090849;28;19919;-73
2023/05/16 10:36:18;;;;;;;;;;;14.40;88.50;;;;;;5090037;28;19908;-73
2023/05/16 10:38:43;;;;;;;;;;;14.70;87.60;;;;;;5082937;28;19916;-73
2023/05/16 10:41:10;;;;;;;;;;;14.70;86.30;;;;;;5083869;28;19916;-73
2023/05/16 10:43:35;;;;;;;;;;;14.70;81.90;;;;;;5081976;28;19916;-73
2023/05/16 10:46:10;;;;;;;;;;;14.80;79.80;;;;;;5090867;28;20191;-74
2023/05/16 10:48:37;;;;;;;;;;;15.00;80.30;;;;;;5089094;28;19912;-73
2023/05/16 10:51:23;;;;;;;;;;;15.10;80.80;;;;;;5084806;28;20007;-73
2023/05/16 10:53:52;;;;;;;;;;;14.90;82.10;;;;;;5090328;28;19977;-73
2023/05/16 10:56:21;;;;;;;;;;;14.70;80.00;;;;;;5082189;28;19923;-74
2023/05/16 10:58:47;;;;;;;;;;;14.60;77.50;;;;;;5081827;28;19912;-74
2023/05/16 11:01:14;;;;;;;;;;;14.50;78.50;;;;;;5082921;28;19922;-74
2023/05/16 11:03:59;;;;;;;;;;;14.30;80.60;;;;;;5089131;28;20020;-74
2023/05/16 11:06:34;;;;;;;;;;;14.20;83.40;;;;;;5081193;28;20469;-73
2023/05/16 11:09:05;;;;;;;;;;;14.10;85.20;;;;;;5081345;28;19912;-73
2023/05/16 11:11:40;;;;;;;;;;;14.20;86.00;;;;;;5090790;28;19947;-74
2023/05/16 11:14:06;;;;;;;;;;;14.60;80.50;;;;;;5082419;28;19938;-73
2023/05/16 11:16:33;;;;;;;;;;;15.50;77.90;;;;;;5089956;28;20312;-73
2023/05/16 11:19:07;;;;;;;;;;;16.70;75.20;;;;;;5090502;28;19935;-74
2023/05/16 11:21:52;;;;;;;;;;;18.30;71.90;;;;;;5088846;28;19969;-74
2023/05/16 11:24:26;;;;;;;;;;;19.40;68.70;;;;;;5105468;28;20015;-74
2023/05/16 11:26:52;;;;;;;;;;;20.20;62.10;;;;;;5090124;28;20320;-74
2023/05/16 11:29:19;;;;;;;;;;;21.50;55.40;;;;;;5077947;28;19969;-74
2023/05/16 11:31:45;;;;;;;;;;;22.30;53.10;;;;;;5090258;28;19962;-73
2023/05/16 11:34:10;;;;;;;;;;;23.50;50.50;;;;;;5082047;28;19978;-74
2023/05/16 11:36:37;;;;;;;;;;;24.50;48.40;;;;;;5082245;28;19965;-74
2023/05/16 11:39:08;;;;;;;;;;;25.40;45.50;;;;;;5082185;28;19920;-74
2023/05/16 11:41:34;;;;;;;;;;;25.90;42.40;;;;;;5080093;28;19912;-74
2023/05/16 11:43:59;;;;;;;;;;;25.40;42.30;;;;;;5080768;28;19920;-73
2023/05/16 11:46:26;;;;;;;;;;;25.60;42.50;;;;;;5089743;28;19916;-72
2023/05/16 11:48:52;;;;;;;;;;;25.60;43.00;;;;;;5080723;28;19924;-73
2023/05/16 11:51:19;;;;;;;;;;;25.30;41.80;;;;;;5080936;28;20253;-73
2023/05/16 11:53:46;;;;;;;;;;;24.60;41.40;;;;;;5079219;28;20363;-73
2023/05/16 11:56:11;;;;;;;;;;;24.20;42.00;;;;;;5089802;28;20283;-73
2023/05/16 11:58:38;;;;;;;;;;;23.90;42.80;;;;;;5088902;28;20031;-73
2023/05/16 12:01:04;;;;;;;;;;;23.70;42.70;;;;;;5090836;28;19970;-73
2023/05/16 12:03:32;;;;;;;;;;;23.30;43.60;;;;;;5063425;28;19916;-73
2023/05/16 12:05:57;;;;;;;;;;;23.00;43.10;;;;;;5081553;28;19934;-73
2023/05/16 12:08:24;;;;;;;;;;;21.60;44.80;;;;;;5081219;28;19908;-73
2023/05/16 12:10:50;;;;;;;;;;;20.40;48.10;;;;;;5089613;28;20425;-73
2023/05/16 12:13:17;;;;;;;;;;;20.50;49.40;;;;;;5080181;28;20440;-73
2023/05/16 12:15:42;;;;;;;;;;;21.00;49.60;;;;;;5083106;28;19920;-73
2023/05/16 12:18:09;;;;;;;;;;;21.60;49.20;;;;;;5080736;28;20470;-73
2023/05/16 12:20:34;;;;;;;;;;;21.90;46.80;;;;;;5088091;28;20765;-73
2023/05/16 12:23:00;;;;;;;;;;;21.80;47.20;;;;;;5077250;28;19924;-73
2023/05/16 12:25:30;;;;;;;;;;;22.40;46.10;;;;;;5078719;28;20303;-73
2023/05/16 12:27:57;;;;;;;;;;;22.40;45.50;;;;;;5080787;28;19908;-74
2023/05/16 12:30:23;;;;;;;;;;;22.30;44.60;;;;;;5086147;28;20379;-73
2023/05/16 12:32:55;;;;;;;;;;;22.30;44.00;;;;;;5086160;28;19923;-73
2023/05/16 12:35:21;;;;;;;;;;;22.10;44.60;;;;;;5080325;28;19916;-73
2023/05/16 12:37:48;;;;;;;;;;;22.40;44.80;;;;;;5088208;28;20330;-73
2023/05/16 12:40:13;;;;;;;;;;;22.60;45.20;;;;;;5088515;28;19919;-73
2023/05/16 12:42:42;;;;;;;;;;;22.80;44.90;;;;;;5081768;28;20271;-73
2023/05/16 12:45:14;;;;;;;;;;;23.20;45.20;;;;;;5086460;28;19916;-73
2023/05/16 12:47:40;;;;;;;;;;;22.70;44.80;;;;;;5087989;28;20318;-74
2023/05/16 12:50:08;;;;;;;;;;;21.40;46.70;;;;;;5081183;28;19912;-74
2023/05/16 12:52:33;;;;;;;;;;;21.00;48.60;;;;;;5080434;28;19908;-73
2023/05/16 12:54:59;;;;;;;;;;;21.10;49.40;;;;;;5080478;28;19919;-75
2023/05/16 12:57:25;;;;;;;;;;;20.40;50.90;;;;;;5080187;28;19912;-74
2023/05/16 12:59:50;;;;;;;;;;;19.70;52.70;;;;;;5088822;28;19916;-73
2023/05/16 13:02:17;;;;;;;;;;;19.60;54.40;;;;;;5089251;28;19912;-75
2023/05/16 13:04:43;;;;;;;;;;;19.40;54.50;;;;;;5078042;28;19931;-75
2023/05/16 13:07:10;;;;;;;;;;;19.70;54.10;;;;;;5054904;28;19916;-73
2023/05/16 13:09:36;;;;;;;;;;;19.70;54.50;;;;;;5079085;28;19916;-74
2023/05/16 13:12:03;;;;;;;;;;;20.60;53.80;;;;;;5080270;28;19916;-72
2023/05/16 13:14:28;;;;;;;;;;;20.90;52.40;;;;;;5083045;28;19908;-74
2023/05/16 13:16:54;;;;;;;;;;;20.50;53.00;;;;;;5088487;28;19980;-74
2023/05/16 13:19:21;;;;;;;;;;;20.40;52.50;;;;;;5089036;28;19922;-74
2023/05/16 13:21:47;;;;;;;;;;;21.00;51.50;;;;;;5087401;28;19919;-74
2023/05/16 13:24:12;;;;;;;;;;;21.40;49.00;;;;;;5079804;28;19928;-74
2023/05/16 13:26:38;;;;;;;;;;;19.90;51.50;;;;;;5089546;28;19981;-74
2023/05/16 13:29:04;;;;;;;;;;;18.90;54.00;;;;;;5079209;28;19913;-73
2023/05/16 13:31:29;;;;;;;;;;;18.00;56.00;;;;;;5081457;28;20323;-74
2023/05/16 13:33:55;;;;;;;;;;;17.20;57.40;;;;;;5080483;28;19916;-73
2023/05/16 13:36:21;;;;;;;;;;;16.70;57.90;;;;;;5089337;28;20352;-74
2023/05/16 13:38:47;;;;;;;;;;;17.40;57.00;;;;;;5079561;28;19935;-72
2023/05/16 13:41:12;;;;;;;;;;;19.80;52.80;;;;;;5079942;28;19954;-74
2023/05/16 13:43:38;;;;;;;;;;;21.50;49.50;;;;;;5081403;28;19951;-73
2023/05/16 13:46:04;;;;;;;;;;;22.60;47.70;;;;;;5093096;28;19916;-74
2023/05/16 13:48:30;;;;;;;;;;;23.50;46.40;;;;;;5084013;28;19923;-74
2023/05/16 13:50:56;;;;;;;;;;;23.90;45.00;;;;;;5084268;28;19915;-74
2023/05/16 13:53:22;;;;;;;;;;;24.00;42.10;;;;;;5083138;28;19919;-75
2023/05/16 13:55:47;;;;;;;;;;;22.50;43.40;;;;;;5084091;28;19923;-75
2023/05/16 13:58:13;;;;;;;;;;;20.40;46.90;;;;;;5084001;28;19912;-74
2023/05/16 14:00:38;;;;;;;;;;;18.90;50.50;;;;;;5066140;28;19950;-74
2023/05/16 14:03:04;;;;;;;;;;;18.00;55.00;;;;;;5090704;28;20602;-74
2023/05/16 14:05:30;;;;;;;;;;;17.30;56.90;;;;;;5083830;28;19912;-74
2023/05/16 14:07:56;;;;;;;;;;;17.20;56.60;;;;;;5091457;28;19920;-74
2023/05/16 14:10:21;;;;;;;;;;;17.10;57.00;;;;;;5091548;28;19913;-74
2023/05/16 14:12:47;;;;;;;;;;;16.90;58.40;;;;;;5089130;28;19913;-73